Time;durP1;ratioP1;P1;durP2;ratioP2;P2;SDS_P1;SDS_P2;PMS_P1;PMS_P2;Temp;Humidity;BMP_temperature;BMP_pressure;BME280_temperature;BME280_humidity;BME280_pressure;Samples;Min_cycle;Max_cycle;Signal;HPM_P1;HPM_P2
2024/02/07 00:00:01;;;;;;;7.80;6.07;;;11.40;99.90;;;;;;5112653;27;20218;-76
2024/02/07 00:02:32;;;;;;;8.40;4.25;;;11.40;99.90;;;;;;5112777;27;20222;-77
2024/02/07 00:04:59;;;;;;;13.98;6.70;;;11.30;99.90;;;;;;5111118;27;20214;-75
2024/02/07 00:07:26;;;;;;;6.30;4.85;;;11.30;99.90;;;;;;5111829;27;20272;-77
2024/02/07 00:09:56;;;;;;;6.00;5.45;;;11.20;99.90;;;;;;5110530;27;20699;-77
2024/02/07 00:12:23;;;;;;;10.40;4.70;;;11.20;99.90;;;;;;5112557;27;20226;-78
2024/02/07 00:14:50;;;;;;;14.63;9.80;;;11.20;99.90;;;;;;5108651;27;20225;-77
2024/02/07 00:17:21;;;;;;;6.68;4.45;;;11.20;99.90;;;;;;5091520;28;20306;-77
2024/02/07 00:19:50;;;;;;;6.88;4.30;;;11.10;99.90;;;;;;5091964;28;20219;-77
2024/02/07 00:22:17;;;;;;;9.07;6.68;;;11.10;99.90;;;;;;5092700;28;20237;-77
2024/02/07 00:24:44;;;;;;;8.55;4.43;;;11.10;99.90;;;;;;5112637;27;20687;-78
2024/02/07 00:27:11;;;;;;;10.05;7.30;;;11.10;99.90;;;;;;5110644;27;20237;-77
2024/02/07 00:29:38;;;;;;;12.05;7.35;;;11.10;99.90;;;;;;5111678;27;20310;-77
2024/02/07 00:32:06;;;;;;;9.85;5.85;;;11.10;99.90;;;;;;5092532;28;20230;-77
2024/02/07 00:34:34;;;;;;;8.95;4.72;;;11.00;99.90;;;;;;5092014;28;20597;-76
2024/02/07 00:37:02;;;;;;;7.43;4.68;;;11.00;99.90;;;;;;5089581;28;20219;-76
2024/02/07 00:39:29;;;;;;;8.70;4.55;;;11.00;99.90;;;;;;5092112;28;20223;-78
2024/02/07 00:41:56;;;;;;;6.43;4.88;;;11.00;99.90;;;;;;5092605;28;20219;-76
2024/02/07 00:44:23;;;;;;;7.28;4.47;;;11.00;99.90;;;;;;5092914;28;20219;-76
2024/02/07 00:46:50;;;;;;;7.75;4.78;;;11.00;99.90;;;;;;5092960;28;20226;-76
2024/02/07 00:49:17;;;;;;;11.65;7.60;;;10.90;99.90;;;;;;5103515;27;20601;-76
2024/02/07 00:51:44;;;;;;;7.50;5.40;;;10.90;99.90;;;;;;5116108;27;20226;-76
2024/02/07 00:54:13;;;;;;;9.60;6.07;;;10.90;99.90;;;;;;5115573;27;20233;-78
2024/02/07 00:56:40;;;;;;;9.00;5.43;;;11.00;99.90;;;;;;5117300;27;20214;-75
2024/02/07 00:59:07;;;;;;;5.05;3.67;;;11.00;99.90;;;;;;5116573;27;20223;-77
2024/02/07 01:01:34;;;;;;;14.90;11.02;;;10.90;99.90;;;;;;5115976;27;20233;-77
2024/02/07 01:04:01;;;;;;;15.13;12.00;;;11.00;99.90;;;;;;5116527;27;20241;-77
2024/02/07 01:06:28;;;;;;;13.27;10.05;;;11.00;99.90;;;;;;5116900;27;20250;-76
2024/02/07 01:08:55;;;;;;;5.18;3.50;;;11.00;99.90;;;;;;5116995;27;20223;-79
2024/02/07 01:11:24;;;;;;;6.00;3.63;;;11.00;99.90;;;;;;5116542;27;20215;-77
2024/02/07 01:14:01;;;;;;;3.55;3.05;;;11.00;99.90;;;;;;5116764;27;20238;-77
2024/02/07 01:16:28;;;;;;;2.22;1.98;;;11.00;99.90;;;;;;5116472;27;20301;-77
2024/02/07 01:18:55;;;;;;;2.22;2.03;;;11.00;99.90;;;;;;5116726;27;20233;-78
2024/02/07 01:21:23;;;;;;;9.07;4.75;;;11.00;99.90;;;;;;5116581;27;20241;-78
2024/02/07 01:23:50;;;;;;;3.15;2.85;;;11.00;99.90;;;;;;5116464;27;20237;-76
2024/02/07 01:26:17;;;;;;;1.77;1.10;;;10.90;99.90;;;;;;5116589;27;20230;-76
2024/02/07 01:28:45;;;;;;;2.13;1.40;;;10.80;99.90;;;;;;5116365;27;20227;-76
2024/02/07 01:31:16;;;;;;;1.33;1.23;;;10.80;99.90;;;;;;5116712;27;20614;-77
2024/02/07 01:33:43;;;;;;;1.65;0.88;;;10.80;99.90;;;;;;5116106;27;20254;-78
2024/02/07 01:36:10;;;;;;;1.58;1.10;;;10.70;99.90;;;;;;5116249;27;20287;-76
2024/02/07 01:38:37;;;;;;;1.75;1.40;;;10.70;99.90;;;;;;5115673;27;20676;-76
2024/02/07 01:41:07;;;;;;;1.98;1.67;;;10.70;99.90;;;;;;5116470;27;20564;-76
2024/02/07 01:43:34;;;;;;;1.23;0.98;;;10.60;99.90;;;;;;5116006;27;20241;-76
2024/02/07 01:46:03;;;;;;;1.80;1.13;;;10.40;99.90;;;;;;5116079;27;20219;-76
2024/02/07 01:48:30;;;;;;;1.60;0.95;;;10.40;99.90;;;;;;5115844;27;20235;-76
2024/02/07 01:50:58;;;;;;;2.05;1.33;;;10.30;99.90;;;;;;5115035;27;20544;-76
2024/02/07 01:53:27;;;;;;;4.18;3.13;;;10.30;99.90;;;;;;5115701;27;20227;-76
2024/02/07 01:55:55;;;;;;;2.85;1.15;;;10.20;99.90;;;;;;5115253;27;20239;-77
2024/02/07 01:58:23;;;;;;;3.33;1.60;;;10.10;99.90;;;;;;5115997;27;20687;-76
2024/02/07 02:00:51;;;;;;;1.80;1.50;;;10.10;99.90;;;;;;5114940;27;20669;-76
2024/02/07 02:03:19;;;;;;;1.73;0.90;;;10.10;99.90;;;;;;5115914;27;20970;-76
2024/02/07 02:05:46;;;;;;;2.72;1.20;;;10.00;99.90;;;;;;5115539;27;20283;-76
2024/02/07 02:08:13;;;;;;;5.22;2.30;;;9.80;99.90;;;;;;5115455;27;20242;-78
2024/02/07 02:10:41;;;;;;;4.38;1.40;;;9.80;99.90;;;;;;5115343;27;20222;-78
2024/02/07 02:13:08;;;;;;;1.98;1.15;;;9.70;99.90;;;;;;5115634;27;20230;-76
2024/02/07 02:15:36;;;;;;;2.53;1.33;;;9.70;99.90;;;;;;5120669;27;20233;-76
2024/02/07 02:18:03;;;;;;;3.70;1.80;;;9.70;99.90;;;;;;5115791;27;20307;-78
2024/02/07 02:20:31;;;;;;;2.65;1.15;;;9.70;99.90;;;;;;5115513;27;20313;-77
2024/02/07 02:23:13;;;;;;;5.00;2.70;;;9.70;99.90;;;;;;5115076;27;20265;-78
2024/02/07 02:26:04;;;;;;;4.00;0.88;;;9.70;99.90;;;;;;5115479;27;20223;-78
2024/02/07 02:28:52;;;;;;;5.35;3.10;;;9.70;99.90;;;;;;5115363;27;20215;-77
2024/02/07 02:31:24;;;;;;;4.28;3.05;;;9.60;99.90;;;;;;5115001;27;20719;-78
2024/02/07 02:33:55;;;;;;;1.88;1.40;;;9.60;99.90;;;;;;5114602;27;20275;-77
2024/02/07 02:36:24;;;;;;;3.30;1.35;;;9.50;99.90;;;;;;5115021;27;20237;-76
2024/02/07 02:38:52;;;;;;;2.65;1.02;;;9.50;99.90;;;;;;5114851;27;20222;-78
2024/02/07 02:41:20;;;;;;;2.88;1.10;;;9.50;99.90;;;;;;5114664;27;20738;-78
2024/02/07 02:43:47;;;;;;;1.35;1.00;;;9.50;99.90;;;;;;5114423;27;22978;-76
2024/02/07 02:46:14;;;;;;;1.90;1.67;;;9.50;99.90;;;;;;5115066;27;20230;-76
2024/02/07 02:48:42;;;;;;;1.80;1.15;;;9.40;99.90;;;;;;5114400;27;20281;-76
2024/02/07 02:51:10;;;;;;;3.40;1.30;;;9.40;99.90;;;;;;5114914;27;20707;-77
2024/02/07 02:53:37;;;;;;;2.00;1.33;;;9.40;99.90;;;;;;5114074;27;20237;-76
2024/02/07 02:56:05;;;;;;;11.23;7.47;;;9.40;99.90;;;;;;5114916;27;20313;-76
2024/02/07 02:58:32;;;;;;;2.55;1.60;;;9.30;99.90;;;;;;5113747;27;20218;-78
2024/02/07 03:01:03;;;;;;;7.60;4.15;;;9.30;99.90;;;;;;5114624;27;20226;-76
2024/02/07 03:03:31;;;;;;;4.97;3.08;;;9.30;99.90;;;;;;5114237;27;20287;-76
2024/02/07 03:06:00;;;;;;;2.10;1.90;;;9.20;99.90;;;;;;5114398;27;20680;-76
2024/02/07 03:08:53;;;;;;;3.40;1.13;;;9.20;99.90;;;;;;5114349;27;20226;-78
2024/02/07 03:11:20;;;;;;;1.63;1.15;;;9.20;99.90;;;;;;5113712;27;20214;-78
2024/02/07 03:13:48;;;;;;;1.45;1.00;;;9.10;99.90;;;;;;5114344;27;20711;-76
2024/02/07 03:16:15;;;;;;;1.88;0.88;;;9.10;99.90;;;;;;5114217;27;20230;-76
2024/02/07 03:18:42;;;;;;;2.35;1.20;;;9.10;99.90;;;;;;5114603;27;20676;-76
2024/02/07 03:21:10;;;;;;;1.75;1.13;;;9.00;99.90;;;;;;5114631;27;20509;-78
2024/02/07 03:23:38;;;;;;;0.88;0.70;;;8.90;99.90;;;;;;5106210;27;20227;-78
2024/02/07 03:26:12;;;;;;;1.15;0.90;;;8.90;99.90;;;;;;5127140;27;20683;-78
2024/02/07 03:28:39;;;;;;;1.58;1.38;;;8.90;99.90;;;;;;5113552;27;20304;-76
2024/02/07 03:31:10;;;;;;;3.75;1.30;;;8.90;99.90;;;;;;5114399;27;20223;-76
2024/02/07 03:33:40;;;;;;;2.17;1.75;;;8.90;99.90;;;;;;5113599;27;20223;-76
2024/02/07 03:36:08;;;;;;;1.80;1.70;;;8.80;99.90;;;;;;5114207;27;20222;-76
2024/02/07 03:38:36;;;;;;;1.55;1.30;;;8.80;99.90;;;;;;5113527;27;20233;-76
2024/02/07 03:41:05;;;;;;;2.55;1.00;;;8.80;99.90;;;;;;5113607;27;20235;-76
2024/02/07 03:43:33;;;;;;;2.45;1.40;;;8.80;99.90;;;;;;5113594;27;20226;-76
2024/02/07 03:46:05;;;;;;;1.73;1.02;;;8.70;99.90;;;;;;5114128;27;20562;-76
2024/02/07 03:48:32;;;;;;;1.65;1.00;;;8.60;99.90;;;;;;5113394;27;20234;-78
2024/02/07 03:51:06;;;;;;;1.63;1.02;;;8.50;99.90;;;;;;5113930;27;20230;-78
2024/02/07 03:53:36;;;;;;;1.10;1.00;;;8.40;99.90;;;;;;5112915;27;20230;-76
2024/02/07 03:56:03;;;;;;;1.30;1.20;;;8.20;99.90;;;;;;5114044;27;20230;-76
2024/02/07 03:58:30;;;;;;;1.75;1.45;;;8.30;99.90;;;;;;5113487;27;20684;-78
2024/02/07 04:00:58;;;;;;;2.05;0.80;;;8.20;99.90;;;;;;5116574;27;20625;-76
2024/02/07 04:03:26;;;;;;;1.63;1.02;;;8.10;99.90;;;;;;5116854;27;20707;-78
2024/02/07 04:05:53;;;;;;;1.98;0.98;;;8.10;99.90;;;;;;5113293;27;20227;-78
2024/02/07 04:08:20;;;;;;;2.35;1.05;;;8.10;99.90;;;;;;5113995;27;20218;-78
2024/02/07 04:10:51;;;;;;;3.95;2.15;;;8.10;99.90;;;;;;5113152;27;20571;-78
2024/02/07 05:16:15;;;;;;;2.20;1.73;;;7.70;99.90;;;;;;5116973;27;20291;-76
2024/02/07 05:18:42;;;;;;;2.88;1.35;;;7.60;99.90;;;;;;5116261;27;20229;-76
2024/02/07 05:21:10;;;;;;;2.85;1.48;;;7.60;99.90;;;;;;5116655;27;20326;-76
2024/02/07 05:23:37;;;;;;;1.55;1.27;;;7.60;99.90;;;;;;5116150;27;20234;-76
2024/02/07 05:26:05;;;;;;;2.67;1.40;;;7.60;99.90;;;;;;5116758;27;20683;-76
2024/02/07 05:28:32;;;;;;;2.67;1.00;;;7.60;99.90;;;;;;5115966;27;20218;-76
2024/02/07 05:30:59;;;;;;;5.68;1.75;;;7.60;99.90;;;;;;5116584;27;20222;-76
2024/02/07 05:33:28;;;;;;;2.05;1.20;;;7.60;99.90;;;;;;5115812;27;20234;-76
2024/02/07 05:35:55;;;;;;;1.98;0.90;;;7.70;99.90;;;;;;5115401;27;20222;-78
2024/02/07 05:38:22;;;;;;;1.23;1.13;;;7.70;99.90;;;;;;5116374;27;20237;-78
2024/02/07 05:40:49;;;;;;;1.33;1.00;;;7.70;99.90;;;;;;5115482;27;20532;-78
2024/02/07 05:43:16;;;;;;;1.60;0.88;;;7.70;99.90;;;;;;5115993;27;20238;-78
2024/02/07 05:45:43;;;;;;;7.40;1.10;;;7.70;99.90;;;;;;5115468;27;20223;-76
2024/02/07 05:48:11;;;;;;;2.80;1.70;;;7.70;99.90;;;;;;5115692;27;20226;-76
2024/02/07 05:50:39;;;;;;;4.40;1.58;;;7.70;99.90;;;;;;5115755;27;20223;-76
2024/02/07 05:53:06;;;;;;;2.25;1.17;;;7.70;99.90;;;;;;5116085;27;20266;-76
2024/02/07 05:55:35;;;;;;;3.60;1.58;;;7.70;99.90;;;;;;5115675;27;20222;-77
2024/02/07 05:58:03;;;;;;;1.92;1.27;;;7.70;99.90;;;;;;5116039;27;20564;-76
2024/02/07 06:00:30;;;;;;;1.77;1.23;;;7.70;99.90;;;;;;5116022;27;20305;-76
2024/02/07 06:02:56;;;;;;;4.28;1.65;;;7.70;99.90;;;;;;5115432;27;20223;-78
2024/02/07 06:05:27;;;;;;;7.35;3.65;;;7.70;99.90;;;;;;5116046;27;20237;-77
2024/02/07 06:07:55;;;;;;;3.60;1.40;;;7.70;99.90;;;;;;5115594;27;20649;-78
2024/02/07 06:10:22;;;;;;;1.30;1.20;;;7.70;99.90;;;;;;5115952;27;20218;-75
2024/02/07 06:12:49;;;;;;;4.10;1.80;;;7.70;99.90;;;;;;5115325;27;20222;-76
2024/02/07 06:15:16;;;;;;;3.60;1.50;;;7.70;99.90;;;;;;5115659;27;20227;-76
2024/02/07 06:17:43;;;;;;;2.50;1.63;;;7.80;99.90;;;;;;5115225;27;20571;-76
2024/02/07 06:20:11;;;;;;;2.60;1.60;;;7.80;99.90;;;;;;5115672;27;20233;-76
2024/02/07 06:22:45;;;;;;;3.92;1.80;;;7.70;99.90;;;;;;5115006;27;20226;-76
2024/02/07 06:25:14;;;;;;;2.08;1.20;;;7.80;99.90;;;;;;5115449;27;20218;-76
2024/02/07 06:27:41;;;;;;;2.53;1.38;;;7.80;99.90;;;;;;5114986;27;20676;-76
2024/02/07 06:30:21;;;;;;;5.05;1.45;;;7.80;99.90;;;;;;5115408;27;20222;-76
2024/02/07 06:32:48;;;;;;;3.72;1.80;;;7.80;99.90;;;;;;5114844;27;20230;-76
2024/02/07 06:35:15;;;;;;;2.67;1.35;;;7.80;99.90;;;;;;5115400;27;20260;-76
2024/02/07 06:37:44;;;;;;;6.30;2.10;;;7.70;99.90;;;;;;5104709;27;20250;-76
2024/02/07 06:40:13;;;;;;;5.65;1.25;;;7.70;99.90;;;;;;5130424;27;20233;-76
2024/02/07 06:42:43;;;;;;;4.07;1.88;;;7.70;99.90;;;;;;5114199;27;20223;-77
2024/02/07 06:45:10;;;;;;;3.50;1.52;;;7.70;99.90;;;;;;5114888;27;20230;-76
2024/02/07 06:47:37;;;;;;;3.50;1.65;;;7.70;99.90;;;;;;5115152;27;20301;-76
2024/02/07 06:50:05;;;;;;;2.20;1.40;;;7.60;99.90;;;;;;5113935;27;20283;-76
2024/02/07 06:52:37;;;;;;;13.18;4.22;;;7.70;99.90;;;;;;5115030;27;20230;-76
2024/02/07 06:55:04;;;;;;;5.95;2.17;;;7.70;99.90;;;;;;5114655;27;20222;-76
2024/02/07 06:57:33;;;;;;;4.60;2.25;;;7.70;99.90;;;;;;5115019;27;20536;-77
2024/02/07 07:00:02;;;;;;;3.90;3.25;;;7.70;99.90;;;;;;5114244;27;20242;-78
2024/02/07 07:02:29;;;;;;;4.03;2.50;;;7.70;99.90;;;;;;5114550;27;20665;-78
2024/02/07 07:04:56;;;;;;;3.03;2.28;;;7.70;99.90;;;;;;5114553;27;20227;-76
2024/02/07 07:07:23;;;;;;;5.65;2.40;;;7.70;99.90;;;;;;5114611;27;20223;-76
2024/02/07 07:09:50;;;;;;;5.65;2.22;;;7.70;99.90;;;;;;5114177;27;20680;-76
2024/02/07 07:12:19;;;;;;;7.15;1.90;;;7.70;99.90;;;;;;5114492;27;20317;-77
2024/02/07 07:14:47;;;;;;;4.72;2.33;;;7.60;99.90;;;;;;5113674;27;20238;-78
2024/02/07 07:17:14;;;;;;;4.72;1.83;;;7.70;99.90;;;;;;5114657;27;20232;-76
2024/02/07 07:19:41;;;;;;;21.67;4.13;;;7.70;99.90;;;;;;5113805;27;20226;-76
2024/02/07 07:22:08;;;;;;;5.47;2.33;;;7.70;99.90;;;;;;5113803;27;20263;-76
2024/02/07 07:24:36;;;;;;;3.67;2.00;;;7.80;99.90;;;;;;5114411;27;20218;-76
2024/02/07 07:27:04;;;;;;;4.15;1.60;;;7.80;99.90;;;;;;5113750;27;20309;-76
2024/02/07 07:29:31;;;;;;;9.60;2.20;;;7.90;99.90;;;;;;5114182;27;20215;-76
2024/02/07 07:32:00;;;;;;;5.90;1.50;;;7.90;99.90;;;;;;5113738;27;20210;-77
2024/02/07 07:34:27;;;;;;;2.80;1.73;;;8.00;99.90;;;;;;5114395;27;20246;-77
2024/02/07 07:36:59;;;;;;;8.52;2.67;;;8.00;99.90;;;;;;5113769;27;20217;-76
2024/02/07 07:39:26;;;;;;;7.50;2.00;;;8.00;99.90;;;;;;5113436;27;20232;-78
2024/02/07 07:41:55;;;;;;;4.47;1.60;;;8.10;99.90;;;;;;5113608;27;20218;-78
2024/02/07 07:44:22;;;;;;;3.83;1.55;;;8.10;99.90;;;;;;5105781;27;20618;-76
2024/02/07 07:46:49;;;;;;;3.15;1.60;;;8.10;99.90;;;;;;5116805;27;20215;-76
2024/02/07 07:49:18;;;;;;;5.03;2.17;;;8.10;99.90;;;;;;5113435;27;20227;-76
2024/02/07 07:51:49;;;;;;;12.98;2.47;;;8.10;99.90;;;;;;5113992;27;20600;-76
2024/02/07 07:54:16;;;;;;;8.93;2.58;;;8.10;99.90;;;;;;5113236;27;20219;-76
2024/02/07 07:56:43;;;;;;;9.20;3.17;;;8.10;99.90;;;;;;5113015;27;20238;-76
2024/02/07 07:59:12;;;;;;;6.13;2.65;;;8.20;99.90;;;;;;5112927;27;20313;-76
2024/02/07 08:01:39;;;;;;;4.55;2.50;;;8.10;99.90;;;;;;5113907;27;20615;-76
2024/02/07 08:04:06;;;;;;;10.43;4.07;;;8.10;99.90;;;;;;5113031;27;20374;-76
2024/02/07 08:06:35;;;;;;;5.50;2.60;;;8.20;99.90;;;;;;5113778;27;20214;-76
2024/02/07 08:09:02;;;;;;;5.15;2.20;;;8.20;99.90;;;;;;5113296;27;20247;-76
2024/02/07 08:11:29;;;;;;;8.57;2.92;;;8.30;99.90;;;;;;5113598;27;20222;-76
2024/02/07 08:13:56;;;;;;;6.53;3.03;;;8.30;99.90;;;;;;5112647;27;20250;-76
2024/02/07 08:16:23;;;;;;;3.92;1.83;;;8.30;99.90;;;;;;5113805;27;20248;-76
2024/02/07 08:18:50;;;;;;;10.73;3.13;;;8.30;99.90;;;;;;5113672;27;20223;-76
2024/02/07 08:21:20;;;;;;;7.47;2.13;;;8.30;99.90;;;;;;5113083;27;20268;-77
2024/02/07 08:23:48;;;;;;;9.68;2.55;;;8.20;99.90;;;;;;5113596;27;20557;-76
2024/02/07 08:26:15;;;;;;;9.73;3.05;;;8.20;99.90;;;;;;5104201;27;20237;-76
2024/02/07 08:28:45;;;;;;;8.80;4.05;;;8.20;99.90;;;;;;5113584;27;20234;-78
2024/02/07 08:31:14;;;;;;;4.97;2.50;;;8.20;99.90;;;;;;5113323;27;20237;-76
2024/02/07 08:33:42;;;;;;;12.00;2.58;;;8.20;99.90;;;;;;5113623;27;20567;-77
2024/02/07 08:36:09;;;;;;;4.53;2.75;;;8.30;99.90;;;;;;5104847;27;20215;-77
2024/02/07 08:38:41;;;;;;;12.50;3.42;;;8.30;99.90;;;;;;5113256;27;20580;-78
2024/02/07 08:41:09;;;;;;;10.10;2.70;;;8.30;99.90;;;;;;5113097;27;20227;-76
2024/02/07 08:43:36;;;;;;;9.70;3.00;;;8.30;99.90;;;;;;5104823;27;20233;-78
2024/02/07 08:46:04;;;;;;;4.88;2.17;;;8.40;99.90;;;;;;5113021;27;20222;-78
2024/02/07 08:48:34;;;;;;;9.00;2.40;;;8.40;99.90;;;;;;5112863;27;20230;-78
2024/02/07 08:51:04;;;;;;;4.15;2.35;;;8.30;99.90;;;;;;5113379;27;20219;-78
2024/02/07 08:53:31;;;;;;;5.63;2.35;;;8.40;99.90;;;;;;5106151;27;20610;-77
2024/02/07 08:55:58;;;;;;;5.25;2.55;;;8.40;99.90;;;;;;5125955;27;20226;-78
2024/02/07 08:58:27;;;;;;;9.38;3.75;;;8.40;99.90;;;;;;5112487;27;20295;-78
2024/02/07 09:00:54;;;;;;;6.53;2.95;;;8.30;99.90;;;;;;5113420;27;20225;-76
2024/02/07 09:03:21;;;;;;;11.02;3.30;;;8.30;99.90;;;;;;5112578;27;20231;-77
2024/02/07 09:05:48;;;;;;;6.90;2.75;;;8.30;99.90;;;;;;5112918;27;20310;-78
2024/02/07 09:08:16;;;;;;;9.10;2.63;;;8.30;99.90;;;;;;5094684;27;20223;-78
2024/02/07 09:10:49;;;;;;;10.98;2.85;;;8.30;99.90;;;;;;5116444;27;20230;-78
2024/02/07 09:13:16;;;;;;;8.57;3.50;;;8.40;99.90;;;;;;5116438;27;20234;-78
2024/02/07 09:15:44;;;;;;;7.05;3.30;;;8.40;99.90;;;;;;5116920;27;20301;-78
2024/02/07 09:18:11;;;;;;;6.35;3.42;;;8.50;99.90;;;;;;5116827;27;20230;-78
2024/02/07 09:20:38;;;;;;;6.65;3.15;;;8.50;99.90;;;;;;5116247;27;20667;-78
2024/02/07 09:23:05;;;;;;;5.68;2.85;;;8.40;99.90;;;;;;5116388;27;20548;-78
2024/02/07 09:25:35;;;;;;;5.97;2.15;;;8.50;99.90;;;;;;5116011;27;20223;-78
2024/02/07 09:28:04;;;;;;;4.10;1.95;;;8.50;99.90;;;;;;5116921;27;20331;-78
2024/02/07 09:30:34;;;;;;;5.60;2.00;;;8.50;99.90;;;;;;5115579;27;20222;-78
2024/02/07 09:33:03;;;;;;;3.15;2.60;;;8.50;99.90;;;;;;5111904;27;20226;-76
2024/02/07 09:35:30;;;;;;;9.20;2.55;;;8.50;99.90;;;;;;5126097;27;20238;-78
2024/02/07 09:37:57;;;;;;;5.13;1.80;;;8.50;99.90;;;;;;5119284;27;20226;-78
2024/02/07 09:40:24;;;;;;;6.82;3.30;;;8.50;99.90;;;;;;5118889;27;20305;-78
2024/02/07 09:42:52;;;;;;;5.35;2.13;;;8.50;99.90;;;;;;5116061;27;20233;-78
2024/02/07 09:45:21;;;;;;;8.27;2.78;;;8.50;99.90;;;;;;5116073;27;20223;-76
2024/02/07 09:47:52;;;;;;;7.82;2.53;;;8.50;99.90;;;;;;5115899;27;20222;-76
2024/02/07 09:50:21;;;;;;;11.43;2.88;;;8.40;99.90;;;;;;5114787;27;20303;-78
2024/02/07 09:52:52;;;;;;;5.35;2.35;;;8.40;99.90;;;;;;5115497;27;20260;-76
2024/02/07 09:55:20;;;;;;;5.80;3.08;;;8.40;99.90;;;;;;5115832;27;20223;-76
2024/02/07 09:57:49;;;;;;;7.10;2.30;;;8.40;99.90;;;;;;5115672;27;20222;-76
2024/02/07 10:00:17;;;;;;;4.95;1.52;;;8.40;99.90;;;;;;5116123;27;20675;-76
2024/02/07 10:02:49;;;;;;;5.93;2.30;;;8.40;99.90;;;;;;5115596;27;20226;-76
2024/02/07 10:05:24;;;;;;;3.25;2.00;;;8.40;99.90;;;;;;5115745;27;20222;-75
2024/02/07 10:07:52;;;;;;;3.47;1.85;;;8.40;99.90;;;;;;5115411;27;20222;-76
2024/02/07 10:10:23;;;;;;;16.02;3.25;;;8.30;99.90;;;;;;5115971;27;20222;-76
2024/02/07 10:12:54;;;;;;;8.15;3.05;;;8.30;99.90;;;;;;5115365;27;20664;-78
2024/02/07 10:15:22;;;;;;;8.63;2.95;;;8.20;99.90;;;;;;5115585;27;20223;-77
2024/02/07 10:17:49;;;;;;;6.35;2.83;;;8.20;99.90;;;;;;5115410;27;20234;-78
2024/02/07 10:20:21;;;;;;;8.77;3.85;;;8.20;99.90;;;;;;5115361;27;20283;-78
2024/02/07 10:22:51;;;;;;;6.20;2.33;;;8.20;99.90;;;;;;5114891;27;20226;-78
2024/02/07 10:25:19;;;;;;;8.25;3.30;;;8.20;99.90;;;;;;5115629;27;20230;-78
2024/02/07 10:27:46;;;;;;;9.13;3.35;;;8.30;99.90;;;;;;5114867;27;20227;-78
2024/02/07 10:30:14;;;;;;;6.82;2.85;;;8.40;99.90;;;;;;5115414;27;20227;-78
2024/02/07 10:32:45;;;;;;;6.00;3.05;;;8.40;99.90;;;;;;5114782;27;20233;-77
2024/02/07 10:35:12;;;;;;;9.82;3.20;;;8.40;99.90;;;;;;5115238;27;20219;-78
2024/02/07 10:37:40;;;;;;;4.55;2.10;;;8.40;99.90;;;;;;5114751;27;20242;-77
2024/02/07 10:40:10;;;;;;;6.25;2.40;;;8.40;99.90;;;;;;5115481;27;20309;-78
2024/02/07 10:42:38;;;;;;;6.20;2.78;;;8.50;99.90;;;;;;5114464;27;20231;-78
2024/02/07 10:45:07;;;;;;;7.25;3.20;;;8.50;99.90;;;;;;5115104;27;20291;-78
2024/02/07 10:47:35;;;;;;;8.60;2.90;;;8.60;99.90;;;;;;5105835;27;20575;-78
2024/02/07 10:50:03;;;;;;;8.85;2.00;;;8.50;99.90;;;;;;5114779;27;20568;-76
2024/02/07 10:52:38;;;;;;;7.85;3.10;;;8.50;99.90;;;;;;5114247;27;20222;-76
2024/02/07 10:55:09;;;;;;;6.13;2.47;;;8.50;99.90;;;;;;5114335;27;20226;-77
2024/02/07 10:57:39;;;;;;;9.90;3.33;;;8.50;99.90;;;;;;5114934;27;20256;-77
2024/02/07 11:00:08;;;;;;;6.50;3.00;;;8.50;99.90;;;;;;5114591;27;20614;-78
2024/02/07 11:02:36;;;;;;;5.82;2.80;;;8.50;99.90;;;;;;5114619;27;20318;-76
2024/02/07 11:05:03;;;;;;;7.63;2.78;;;8.50;99.90;;;;;;5114466;27;20264;-76
2024/02/07 11:07:31;;;;;;;6.25;2.88;;;8.50;99.90;;;;;;5114600;27;20222;-78
2024/02/07 11:10:01;;;;;;;5.30;2.15;;;8.50;99.90;;;;;;5114503;27;20222;-78
2024/02/07 11:12:30;;;;;;;7.38;1.95;;;8.50;99.90;;;;;;5114402;27;20226;-77
2024/02/07 11:15:02;;;;;;;9.65;2.80;;;8.40;99.90;;;;;;5114063;27;20271;-78
2024/02/07 11:17:30;;;;;;;5.10;2.80;;;8.40;99.90;;;;;;5115109;27;20218;-78
2024/02/07 11:19:57;;;;;;;8.98;2.10;;;8.40;99.90;;;;;;5113935;27;20233;-78
2024/02/07 11:22:28;;;;;;;12.60;3.97;;;8.40;99.90;;;;;;5114789;27;20222;-78
2024/02/07 11:24:58;;;;;;;10.07;3.53;;;8.40;99.90;;;;;;5113231;27;20230;-77
2024/02/07 11:27:25;;;;;;;24.83;3.20;;;8.40;99.90;;;;;;5115634;27;20232;-78
2024/02/07 11:29:55;;;;;;;6.05;3.17;;;8.40;99.90;;;;;;5114819;27;20268;-78
2024/02/07 11:32:22;;;;;;;8.50;3.17;;;8.40;99.90;;;;;;5118355;27;20236;-75
2024/02/07 11:34:52;;;;;;;8.25;2.72;;;8.40;99.90;;;;;;5119338;27;20306;-78
2024/02/07 11:37:21;;;;;;;6.63;2.65;;;8.40;99.90;;;;;;5122668;27;20210;-79
2024/02/07 11:39:50;;;;;;;7.82;3.42;;;8.40;99.90;;;;;;5116498;27;20218;-76
2024/02/07 11:42:20;;;;;;;7.15;2.40;;;8.50;99.90;;;;;;5114119;27;20287;-75
2024/02/07 11:44:59;;;;;;;6.93;2.78;;;8.60;99.90;;;;;;5113383;27;20234;-76
2024/02/07 11:47:30;;;;;;;7.88;2.30;;;8.70;99.90;;;;;;5113848;27;20663;-76
2024/02/07 11:49:58;;;;;;;4.43;2.42;;;8.60;99.90;;;;;;5113280;27;20248;-76
2024/02/07 11:52:31;;;;;;;3.83;2.40;;;8.60;99.90;;;;;;5114133;27;20229;-76
2024/02/07 11:55:06;;;;;;;8.18;2.50;;;8.60;99.90;;;;;;5113702;27;20313;-76
2024/02/07 11:57:33;;;;;;;3.13;1.98;;;8.70;99.90;;;;;;5113936;27;20305;-76
2024/02/07 12:00:03;;;;;;;8.35;2.90;;;8.70;99.90;;;;;;5113380;27;20218;-76
2024/02/07 12:02:30;;;;;;;14.05;3.20;;;8.70;99.90;;;;;;5113019;27;20223;-76
2024/02/07 12:04:58;;;;;;;9.80;4.10;;;8.70;99.90;;;;;;5113172;27;20250;-78
2024/02/07 12:07:32;;;;;;;6.00;2.90;;;8.60;99.90;;;;;;5114043;27;20610;-78
2024/02/07 12:09:59;;;;;;;12.73;3.95;;;8.70;99.90;;;;;;5112880;27;20676;-78
2024/02/07 12:12:26;;;;;;;13.18;3.72;;;8.70;99.90;;;;;;5106262;27;20229;-79
2024/02/07 12:14:54;;;;;;;7.15;2.53;;;8.70;99.90;;;;;;5109346;27;20218;-79
2024/02/07 12:17:22;;;;;;;5.85;2.00;;;8.70;99.90;;;;;;5109799;27;20226;-79
2024/02/07 12:19:49;;;;;;;5.78;2.28;;;8.80;99.90;;;;;;5103540;27;20214;-79
2024/02/07 12:22:17;;;;;;;7.72;2.92;;;8.80;99.90;;;;;;5104109;27;20222;-78
2024/02/07 12:24:45;;;;;;;15.40;4.13;;;8.90;99.90;;;;;;5108690;27;20223;-76
2024/02/07 12:27:13;;;;;;;3.15;2.40;;;8.80;99.90;;;;;;5108368;27;20219;-76
2024/02/07 12:29:41;;;;;;;11.70;4.63;;;8.90;99.90;;;;;;5107210;27;20275;-79
2024/02/07 12:32:09;;;;;;;11.50;4.05;;;8.90;99.90;;;;;;5111220;27;20218;-79
2024/02/07 12:34:37;;;;;;;12.10;5.45;;;9.00;99.90;;;;;;5105514;27;20292;-79
2024/02/07 12:37:04;;;;;;;7.45;3.22;;;9.00;99.90;;;;;;5109926;27;20665;-79
2024/02/07 12:39:31;;;;;;;5.65;2.60;;;9.00;99.90;;;;;;5104659;27;20218;-79
2024/02/07 12:42:03;;;;;;;9.13;2.90;;;9.00;99.90;;;;;;5110796;27;20219;-78
2024/02/07 12:44:31;;;;;;;6.53;3.38;;;8.90;99.90;;;;;;5114759;27;20223;-77
2024/02/07 12:46:59;;;;;;;7.78;3.10;;;8.90;99.90;;;;;;5116441;27;20687;-77
2024/02/07 12:49:26;;;;;;;13.18;5.18;;;8.90;99.90;;;;;;5117035;27;20219;-77
2024/02/07 12:51:55;;;;;;;7.30;3.03;;;8.90;99.90;;;;;;5115436;27;20900;-78
2024/02/07 12:54:22;;;;;;;6.28;2.95;;;8.90;99.90;;;;;;5117372;27;20218;-78
2024/02/07 12:56:53;;;;;;;11.60;2.78;;;8.90;99.90;;;;;;5116826;27;20245;-78
2024/02/07 12:59:30;;;;;;;4.70;2.13;;;8.90;99.90;;;;;;5116415;27;20210;-78
2024/02/07 13:01:57;;;;;;;7.55;2.47;;;8.90;99.90;;;;;;5116419;27;20549;-76
2024/02/07 13:04:25;;;;;;;5.97;3.42;;;9.00;99.90;;;;;;5108400;27;20223;-76
2024/02/07 13:06:52;;;;;;;7.22;2.60;;;9.10;99.90;;;;;;5107854;27;20230;-77
2024/02/07 13:09:24;;;;;;;7.93;3.25;;;9.10;99.90;;;;;;5101962;27;20214;-80
2024/02/07 13:11:51;;;;;;;10.50;4.65;;;9.10;99.90;;;;;;5112373;27;20220;-80
2024/02/07 13:14:18;;;;;;;8.50;2.80;;;9.10;99.90;;;;;;5104297;27;20648;-79
2024/02/07 13:16:51;;;;;;;9.13;2.55;;;9.10;99.90;;;;;;5115401;27;20228;-78
2024/02/07 13:19:18;;;;;;;18.67;6.10;;;9.10;99.50;;;;;;5115965;27;20237;-78
2024/02/07 13:21:46;;;;;;;8.73;2.95;;;9.10;99.60;;;;;;5115706;27;20264;-75
2024/02/07 13:24:16;;;;;;;9.00;3.97;;;9.10;98.80;;;;;;5115307;27;20234;-76
2024/02/07 13:26:45;;;;;;;6.93;3.95;;;9.10;98.50;;;;;;5114455;27;20218;-75
2024/02/07 13:29:13;;;;;;;5.07;2.92;;;9.10;98.80;;;;;;5105944;27;20221;-76
2024/02/07 13:31:41;;;;;;;12.18;7.32;;;9.10;98.60;;;;;;5111581;27;20292;-76
2024/02/07 13:34:13;;;;;;;17.50;5.55;;;9.20;98.80;;;;;;5113326;27;20305;-77
2024/02/07 13:36:40;;;;;;;5.93;3.95;;;9.20;97.90;;;;;;5111968;27;20218;-76
2024/02/07 13:39:08;;;;;;;7.88;3.42;;;9.20;98.00;;;;;;5112514;27;20215;-76
2024/02/07 13:41:36;;;;;;;7.05;3.80;;;9.20;97.60;;;;;;5113298;27;20219;-78
2024/02/07 13:44:05;;;;;;;11.13;4.53;;;9.30;97.10;;;;;;5112771;27;20223;-78
2024/02/07 13:46:35;;;;;;;8.00;3.50;;;9.30;95.80;;;;;;5110925;27;20231;-78
2024/02/07 13:49:04;;;;;;;4.10;2.35;;;9.30;95.30;;;;;;5105684;27;20228;-78
2024/02/07 13:51:35;;;;;;;6.80;2.63;;;9.30;94.90;;;;;;5112338;27;20568;-78
2024/02/07 13:54:02;;;;;;;6.97;3.08;;;9.30;95.10;;;;;;5111401;27;20238;-78
2024/02/07 13:56:29;;;;;;;11.38;2.65;;;9.30;94.30;;;;;;5110312;27;20214;-78
2024/02/07 13:58:59;;;;;;;6.43;2.80;;;9.20;93.50;;;;;;5107992;27;20230;-86
2024/02/07 14:01:28;;;;;;;5.93;2.10;;;9.20;93.40;;;;;;5120601;27;20651;-85